createdAt,value
2023-03-15T00:00:11.729Z,1.41
2023-03-15T00:02:41.647Z,1.30
2023-03-15T00:05:13.387Z,1.34
2023-03-15T00:07:42.847Z,1.38
2023-03-15T00:10:12.237Z,1.44
2023-03-15T00:12:42.632Z,1.39
2023-03-15T00:15:14.445Z,1.45
2023-03-15T00:17:42.887Z,1.38
2023-03-15T00:20:12.352Z,1.36
2023-03-15T00:22:40.495Z,1.47
2023-03-15T00:25:10.923Z,1.40
2023-03-15T00:27:39.038Z,1.29
2023-03-15T00:30:08.098Z,1.33
2023-03-15T00:32:36.256Z,1.23
2023-03-15T00:35:05.159Z,1.21
2023-03-15T00:37:33.563Z,1.27
2023-03-15T00:40:01.962Z,1.26
2023-03-15T00:42:31.449Z,1.29
2023-03-15T00:44:59.584Z,1.25
2023-03-15T00:47:27.714Z,1.20
2023-03-15T00:49:55.903Z,1.29
2023-03-15T00:52:24.384Z,1.19
2023-03-15T00:54:53.992Z,1.17
2023-03-15T00:57:23.446Z,1.17
2023-03-15T00:59:54.728Z,1.23
2023-03-15T01:02:22.894Z,1.23
2023-03-15T01:04:52.271Z,1.10
2023-03-15T01:07:21.426Z,1.12
2023-03-15T01:09:49.592Z,1.00
2023-03-15T01:12:17.787Z,0.98
2023-03-15T01:14:45.966Z,0.94
2023-03-15T01:17:15.488Z,0.94
2023-03-15T01:19:43.676Z,0.95
2023-03-15T01:22:11.836Z,0.82
2023-03-15T01:24:40.046Z,0.71
2023-03-15T01:27:08.178Z,0.79
2023-03-15T01:29:36.371Z,0.76
2023-03-15T01:32:05.605Z,0.72
2023-03-15T01:34:36.705Z,0.73
2023-03-15T01:37:05.072Z,0.74
2023-03-15T01:39:39.213Z,0.71
2023-03-15T01:42:07.875Z,0.70
2023-03-15T01:45:03.132Z,0.64
2023-03-15T01:47:32.817Z,0.68
2023-03-15T01:50:05.612Z,0.74
2023-03-15T01:52:37.210Z,0.72
2023-03-15T01:55:11.110Z,0.56
2023-03-15T01:57:48.319Z,0.68
2023-03-15T02:00:18.510Z,0.71
2023-03-15T02:03:04.697Z,0.57
2023-03-15T02:05:38.150Z,0.62
2023-03-15T02:08:10.077Z,0.71
2023-03-15T02:10:44.603Z,0.54
2023-03-15T02:13:17.570Z,0.49
2023-03-15T02:15:47.511Z,0.44
2023-03-15T02:18:22.423Z,0.49
2023-03-15T02:21:00.375Z,0.51
2023-03-15T02:23:29.907Z,0.58
2023-03-15T02:26:13.568Z,0.51
2023-03-15T02:28:43.482Z,0.33
2023-03-15T02:31:14.178Z,0.34
2023-03-15T02:33:45.382Z,0.52
2023-03-15T02:36:19.583Z,0.28
2023-03-15T02:38:48.287Z,0.28
2023-03-15T02:41:20.129Z,0.35
2023-03-15T02:43:54.107Z,0.29
2023-03-15T02:46:23.055Z,0.38
2023-03-15T02:48:54.115Z,0.30
2023-03-15T02:51:24.663Z,0.35
2023-03-15T02:53:52.963Z,0.28
2023-03-15T02:56:21.200Z,0.29
2023-03-15T02:58:50.848Z,0.41
2023-03-15T03:01:20.170Z,0.40
2023-03-15T03:03:48.692Z,0.37
2023-03-15T03:06:18.017Z,0.19
2023-03-15T03:08:48.454Z,0.24
2023-03-15T03:11:20.295Z,0.25
2023-03-15T03:13:50.084Z,0.22
2023-03-15T03:16:18.372Z,0.36
2023-03-15T03:18:46.552Z,0.35
2023-03-15T03:21:15.089Z,0.30
2023-03-15T03:23:46.237Z,0.20
2023-03-15T03:26:17.460Z,0.23
2023-03-15T03:28:49.645Z,0.23
2023-03-15T03:31:21.285Z,0.11
2023-03-15T03:33:50.650Z,0.19
2023-03-15T03:36:19.898Z,0.24
2023-03-15T03:38:48.863Z,0.18
2023-03-15T03:41:18.434Z,0.15
2023-03-15T03:43:46.659Z,0.14
2023-03-15T03:46:15.000Z,0.08
2023-03-15T03:48:49.637Z,0.08
2023-03-15T03:51:17.804Z,0.12
2023-03-15T03:53:45.993Z,0.15
2023-03-15T03:56:14.111Z,0.14
2023-03-15T03:58:42.455Z,0.03
2023-03-15T04:01:33.825Z,0.09
2023-03-15T04:04:03.438Z,0.02
2023-03-15T04:06:32.213Z,-0.09
2023-03-15T04:09:02.708Z,-0.04
2023-03-15T04:11:37.719Z,0.01
2023-03-15T04:14:08.724Z,-0.10
2023-03-15T04:16:37.479Z,0.06
2023-03-15T04:19:12.767Z,-0.08
2023-03-15T04:21:47.357Z,-0.15
2023-03-15T04:24:39.748Z,-0.23
2023-03-15T04:27:14.847Z,-0.12
2023-03-15T04:30:05.304Z,-0.15
2023-03-15T04:32:58.865Z,-0.08
2023-03-15T04:35:48.640Z,-0.06
2023-03-15T04:38:35.654Z,-0.10
2023-03-15T04:41:28.024Z,-0.05
2023-03-15T04:44:02.319Z,-0.04
2023-03-15T04:46:46.738Z,0.00
2023-03-15T04:49:35.173Z,-0.13
2023-03-15T04:52:23.243Z,-0.15
2023-03-15T04:55:29.610Z,-0.01
2023-03-15T04:58:06.511Z,-0.12
2023-03-15T05:00:44.724Z,-0.08
2023-03-15T05:03:33.412Z,-0.06
2023-03-15T05:06:09.998Z,-0.01
2023-03-15T05:08:52.885Z,-0.08
2023-03-15T05:11:21.333Z,0.09
2023-03-15T05:14:07.550Z,-0.11
2023-03-15T05:16:44.231Z,-0.05
2023-03-15T05:19:34.616Z,0.11
2023-03-15T05:22:25.956Z,0.05
2023-03-15T05:25:19.502Z,-0.14
2023-03-15T05:28:05.022Z,-0.02
2023-03-15T05:30:52.068Z,0.01
2023-03-15T05:33:46.893Z,0.01
2023-03-15T05:36:41.820Z,0.15
2023-03-15T05:39:28.514Z,0.16
2023-03-15T05:42:14.040Z,0.26
2023-03-15T05:45:13.709Z,0.27
2023-03-15T05:48:08.093Z,0.28
2023-03-15T05:50:52.825Z,0.29
2023-03-15T05:53:33.091Z,0.36
2023-03-15T05:56:22.601Z,0.31
2023-03-15T05:59:16.611Z,0.54
2023-03-15T06:02:04.684Z,0.64
2023-03-15T06:04:41.632Z,0.70
2023-03-15T06:07:12.521Z,0.74
2023-03-15T06:09:40.666Z,0.83
2023-03-15T06:12:09.164Z,0.91
2023-03-15T06:14:40.017Z,0.82
2023-03-15T06:17:09.812Z,1.04
2023-03-15T06:19:39.081Z,1.11
2023-03-15T06:22:07.645Z,1.20
2023-03-15T06:24:46.713Z,1.15
2023-03-15T06:27:15.017Z,1.23
2023-03-15T06:29:44.827Z,1.25
2023-03-15T06:32:13.281Z,1.22
2023-03-15T06:34:43.830Z,1.28
2023-03-15T06:37:22.733Z,1.36
2023-03-15T06:39:57.572Z,1.55
2023-03-15T06:42:26.917Z,1.69
2023-03-15T06:44:58.666Z,2.11
2023-03-15T06:47:26.878Z,2.11
2023-03-15T06:49:56.819Z,2.07
2023-03-15T06:52:25.380Z,2.10
2023-03-15T06:54:53.812Z,2.07
2023-03-15T06:57:21.963Z,1.84
2023-03-15T06:59:50.602Z,1.84
2023-03-15T07:02:20.117Z,1.67
2023-03-15T07:04:48.858Z,1.65
2023-03-15T07:07:17.131Z,1.76
2023-03-15T07:09:45.374Z,2.08
2023-03-15T07:12:13.966Z,2.15
2023-03-15T07:14:42.066Z,2.34
2023-03-15T07:17:10.332Z,2.58
2023-03-15T07:19:50.137Z,2.70
2023-03-15T07:22:23.803Z,2.91
2023-03-15T07:24:52.054Z,2.94
2023-03-15T07:27:20.208Z,2.90
2023-03-15T07:29:48.593Z,2.96
2023-03-15T07:32:16.861Z,3.03
2023-03-15T07:34:46.418Z,2.86
2023-03-15T07:37:14.575Z,2.90
2023-03-15T07:39:42.744Z,2.98
2023-03-15T07:42:11.524Z,3.07
2023-03-15T07:44:44.073Z,3.33
2023-03-15T07:47:12.245Z,3.20
2023-03-15T07:49:40.599Z,3.19
2023-03-15T07:52:10.383Z,3.20
2023-03-15T07:54:38.544Z,3.23
2023-03-15T07:57:07.037Z,3.37
2023-03-15T07:59:35.162Z,3.30
2023-03-15T08:02:03.490Z,3.04
2023-03-15T08:04:31.709Z,3.27
2023-03-15T08:06:59.935Z,3.48
2023-03-15T08:09:29.622Z,3.16
2023-03-15T08:11:57.748Z,2.97
2023-03-15T08:14:26.024Z,3.11
2023-03-15T08:16:54.141Z,3.32
2023-03-15T08:19:22.769Z,3.39
2023-03-15T08:21:53.962Z,3.48
2023-03-15T08:24:22.612Z,3.65
2023-03-15T08:26:52.183Z,3.74
2023-03-15T08:29:20.298Z,3.99
2023-03-15T08:31:48.520Z,4.21
2023-03-15T08:34:17.088Z,4.61
2023-03-15T08:36:47.583Z,4.80
2023-03-15T08:39:15.947Z,5.09
2023-03-15T08:41:45.573Z,4.93
2023-03-15T08:44:15.172Z,4.47
2023-03-15T08:46:43.434Z,4.37
2023-03-15T08:49:12.173Z,4.49
2023-03-15T08:51:40.977Z,4.20
2023-03-15T08:54:09.126Z,4.18
2023-03-15T08:56:37.335Z,4.18
2023-03-15T08:59:05.492Z,4.01
2023-03-15T09:01:35.883Z,4.14
2023-03-15T09:04:04.282Z,4.33
2023-03-15T09:06:32.463Z,4.36
2023-03-15T09:09:01.419Z,4.03
2023-03-15T09:11:29.672Z,3.61
2023-03-15T09:13:57.798Z,3.22
2023-03-15T09:16:26.151Z,3.09
2023-03-15T09:18:55.634Z,3.23
2023-03-15T09:21:24.676Z,3.26
2023-03-15T09:23:52.788Z,3.18
2023-03-15T09:26:20.947Z,3.17
2023-03-15T09:28:49.075Z,3.34
2023-03-15T09:31:18.486Z,3.30
2023-03-15T09:33:46.735Z,3.63
2023-03-15T09:36:16.243Z,3.65
2023-03-15T09:38:44.769Z,3.77
2023-03-15T09:41:19.420Z,3.90
2023-03-15T09:44:01.024Z,4.04
2023-03-15T09:46:32.249Z,4.01
2023-03-15T09:49:09.434Z,4.36
2023-03-15T09:51:47.855Z,4.58
2023-03-15T09:54:19.492Z,4.22
2023-03-15T09:56:54.687Z,4.13
2023-03-15T09:59:27.430Z,4.07
2023-03-15T10:01:57.374Z,4.32
2023-03-15T10:04:29.646Z,4.42
2023-03-15T10:07:01.779Z,4.59
2023-03-15T10:09:34.723Z,4.94
2023-03-15T10:12:05.655Z,5.00
2023-03-15T10:14:52.197Z,4.88
2023-03-15T10:17:27.333Z,4.86
2023-03-15T10:20:01.491Z,5.26
2023-03-15T10:22:36.615Z,5.14
2023-03-15T10:25:15.512Z,5.47
2023-03-15T10:27:58.155Z,5.34
2023-03-15T10:30:27.919Z,5.06
2023-03-15T10:33:00.841Z,5.31
2023-03-15T10:35:29.522Z,5.56
2023-03-15T10:37:59.285Z,5.62
2023-03-15T10:40:42.547Z,5.80
2023-03-15T10:43:18.746Z,6.21
2023-03-15T10:46:01.778Z,5.97
2023-03-15T10:48:31.880Z,5.84
2023-03-15T10:51:05.654Z,5.40
2023-03-15T10:53:35.567Z,5.13
2023-03-15T10:56:08.399Z,5.31
2023-03-15T10:59:02.302Z,5.78
2023-03-15T11:01:37.425Z,6.36
2023-03-15T11:04:16.152Z,5.84
2023-03-15T11:06:47.969Z,5.84
2023-03-15T11:09:19.263Z,5.77
2023-03-15T11:11:58.373Z,5.60
2023-03-15T11:14:27.480Z,5.11
2023-03-15T11:16:58.173Z,4.88
2023-03-15T11:19:28.872Z,4.84
2023-03-15T11:21:59.242Z,4.77
2023-03-15T11:24:30.640Z,4.88
2023-03-15T11:27:01.696Z,4.65
2023-03-15T11:29:32.616Z,5.01
2023-03-15T11:32:02.428Z,5.53
2023-03-15T11:34:40.062Z,5.65
2023-03-15T11:37:16.494Z,5.66
2023-03-15T11:39:58.741Z,6.02
2023-03-15T11:42:35.077Z,5.74
2023-03-15T11:45:07.983Z,6.35
2023-03-15T11:47:44.009Z,6.93
2023-03-15T11:50:16.891Z,6.98
2023-03-15T11:52:50.452Z,6.21
2023-03-15T11:55:24.102Z,5.15
2023-03-15T11:57:53.345Z,4.84
2023-03-15T12:00:51.743Z,4.71
2023-03-15T12:03:36.451Z,5.20
2023-03-15T12:06:41.298Z,6.33
2023-03-15T12:09:40.836Z,6.83
2023-03-15T12:12:41.686Z,6.55
2023-03-15T12:15:44.709Z,6.09
2023-03-15T12:18:19.722Z,6.39
2023-03-15T12:20:54.147Z,6.31
2023-03-15T12:23:34.892Z,5.99
2023-03-15T12:26:10.478Z,6.15
2023-03-15T12:28:45.148Z,5.92
2023-03-15T12:31:15.074Z,5.94
2023-03-15T12:33:49.658Z,6.03
2023-03-15T12:36:28.138Z,5.99
2023-03-15T12:39:04.512Z,5.98
2023-03-15T12:41:39.737Z,5.48
2023-03-15T12:44:39.751Z,5.30
2023-03-15T12:47:09.382Z,5.57
2023-03-15T12:49:42.830Z,5.52
2023-03-15T12:52:30.067Z,6.00
2023-03-15T12:55:05.790Z,6.09
2023-03-15T12:57:39.920Z,6.16
2023-03-15T13:00:15.093Z,5.66
2023-03-15T13:02:47.102Z,5.67
2023-03-15T13:05:24.905Z,5.82
2023-03-15T13:07:59.616Z,6.17
2023-03-15T13:10:36.990Z,6.43
2023-03-15T13:13:34.902Z,6.70
2023-03-15T13:16:16.359Z,5.88
2023-03-15T13:18:53.871Z,5.51
2023-03-15T13:21:27.856Z,5.32
2023-03-15T13:23:59.319Z,5.24
2023-03-15T13:26:40.576Z,5.62
2023-03-15T13:29:14.210Z,6.12
2023-03-15T13:31:45.144Z,6.23
2023-03-15T13:34:16.161Z,6.37
2023-03-15T13:36:47.323Z,6.82
2023-03-15T13:39:20.637Z,6.87
2023-03-15T13:41:48.913Z,7.03
2023-03-15T13:44:20.907Z,6.76
2023-03-15T13:46:52.651Z,6.69
2023-03-15T13:49:21.696Z,6.46
2023-03-15T13:51:51.487Z,6.15
2023-03-15T13:54:25.175Z,6.23
2023-03-15T13:57:01.467Z,6.62
2023-03-15T13:59:33.725Z,6.37
2023-03-15T14:02:05.930Z,6.57
2023-03-15T14:04:38.044Z,6.33
2023-03-15T14:07:27.367Z,6.28
2023-03-15T14:10:24.082Z,6.97
2023-03-15T14:12:54.064Z,7.37
2023-03-15T14:15:26.521Z,7.50
2023-03-15T14:18:01.949Z,7.56
2023-03-15T14:20:33.633Z,7.48
2023-03-15T14:23:03.609Z,7.09
2023-03-15T14:25:36.393Z,6.77
2023-03-15T14:28:06.225Z,6.88
2023-03-15T14:30:38.014Z,6.68
2023-03-15T14:33:08.858Z,6.63
2023-03-15T14:35:46.044Z,6.53
2023-03-15T14:38:22.110Z,6.10
2023-03-15T14:40:51.691Z,6.00
2023-03-15T14:43:19.859Z,6.11
2023-03-15T14:45:49.689Z,5.91
2023-03-15T14:48:28.006Z,5.89
2023-03-15T14:50:57.265Z,5.18
2023-03-15T14:53:27.934Z,4.94
2023-03-15T14:55:56.375Z,4.73
2023-03-15T14:58:24.532Z,4.57
2023-03-15T15:00:55.110Z,4.48
2023-03-15T15:03:32.784Z,4.68
2023-03-15T15:06:02.541Z,3.83
2023-03-15T15:08:33.428Z,3.83
2023-03-15T15:11:02.702Z,3.77
2023-03-15T15:13:32.460Z,3.74
2023-03-15T15:16:00.895Z,3.85
2023-03-15T15:18:31.983Z,3.90
2023-03-15T15:21:02.946Z,3.96
2023-03-15T15:23:34.896Z,3.97
2023-03-15T15:26:05.438Z,4.03
2023-03-15T15:28:37.150Z,4.01
2023-03-15T15:31:07.044Z,4.05
2023-03-15T15:33:36.668Z,4.18
2023-03-15T15:36:05.338Z,4.28
2023-03-15T15:38:38.695Z,4.49
2023-03-15T15:41:12.300Z,4.42
2023-03-15T15:43:40.681Z,4.45
2023-03-15T15:46:11.227Z,4.83
2023-03-15T15:48:41.741Z,5.09
2023-03-15T15:51:22.380Z,5.18
2023-03-15T15:53:51.200Z,5.26
2023-03-15T15:56:19.379Z,5.26
2023-03-15T15:58:47.863Z,5.36
2023-03-15T16:01:17.106Z,5.84
2023-03-15T16:03:46.560Z,5.61
2023-03-15T16:06:19.014Z,5.40
2023-03-15T16:08:48.227Z,5.49
2023-03-15T16:11:17.357Z,5.29
2023-03-15T16:13:46.916Z,5.05
2023-03-15T16:16:16.623Z,4.91
2023-03-15T16:18:46.440Z,4.61
2023-03-15T16:21:24.356Z,4.45
2023-03-15T16:24:00.150Z,4.47
2023-03-15T16:26:28.924Z,4.25
2023-03-15T16:28:57.063Z,4.26
2023-03-15T16:31:25.321Z,4.18
2023-03-15T16:33:54.808Z,4.05
2023-03-15T16:36:23.521Z,4.05
2023-03-15T16:38:51.712Z,4.23
2023-03-15T16:41:19.965Z,4.30
2023-03-15T16:43:49.467Z,4.27
2023-03-15T16:46:18.406Z,4.13
2023-03-15T16:48:46.616Z,4.01
2023-03-15T16:51:17.167Z,4.02
2023-03-15T16:53:45.538Z,4.06
2023-03-15T16:56:15.556Z,4.01
2023-03-15T16:58:45.211Z,4.04
2023-03-15T17:01:13.675Z,4.01
2023-03-15T17:03:42.089Z,4.02
2023-03-15T17:06:20.052Z,3.91
2023-03-15T17:08:48.689Z,3.96
2023-03-15T17:11:18.592Z,4.07
2023-03-15T17:13:46.985Z,3.66
2023-03-15T17:16:16.676Z,3.47
2023-03-15T17:18:47.794Z,3.28
2023-03-15T17:21:21.245Z,3.33
2023-03-15T17:23:49.468Z,3.42
2023-03-15T17:26:19.763Z,3.31
2023-03-15T17:28:48.105Z,3.23
2023-03-15T17:31:24.873Z,3.28
2023-03-15T17:33:53.591Z,3.18
2023-03-15T17:36:25.117Z,3.22
2023-03-15T17:38:54.481Z,3.14
2023-03-15T17:41:25.605Z,3.01
2023-03-15T17:43:53.849Z,2.88
2023-03-15T17:46:28.186Z,2.81
2023-03-15T17:48:57.016Z,2.83
2023-03-15T17:51:30.146Z,2.63
2023-03-15T17:53:59.529Z,2.60
2023-03-15T17:56:28.649Z,2.50
2023-03-15T17:58:56.852Z,2.56
2023-03-15T18:01:28.098Z,2.43
2023-03-15T18:03:57.184Z,2.46
2023-03-15T18:06:26.873Z,2.47
2023-03-15T18:08:55.047Z,2.44
2023-03-15T18:11:26.270Z,2.49
2023-03-15T18:13:55.455Z,2.37
2023-03-15T18:16:24.080Z,2.56
2023-03-15T18:18:52.550Z,2.47
2023-03-15T18:21:23.541Z,2.46
2023-03-15T18:23:53.401Z,2.44
2023-03-15T18:26:21.962Z,2.38
2023-03-15T18:28:50.157Z,2.26
2023-03-15T18:31:20.590Z,2.34
2023-03-15T18:33:49.549Z,2.27
2023-03-15T18:36:18.234Z,2.21
2023-03-15T18:38:46.917Z,2.18
2023-03-15T18:41:20.816Z,2.09
2023-03-15T18:43:51.360Z,2.01
2023-03-15T18:46:21.061Z,1.95
2023-03-15T18:48:49.950Z,1.98
2023-03-15T18:51:18.346Z,1.88
2023-03-15T18:53:46.651Z,1.78
2023-03-15T18:56:19.469Z,1.78
2023-03-15T18:58:47.791Z,1.76
2023-03-15T19:01:16.796Z,1.69
2023-03-15T19:03:45.475Z,1.78
2023-03-15T19:06:14.391Z,1.73
2023-03-15T19:08:42.858Z,1.75
2023-03-15T19:11:11.537Z,1.62
2023-03-15T19:13:41.396Z,1.61
2023-03-15T19:16:09.496Z,1.65
2023-03-15T19:18:40.739Z,1.59
2023-03-15T19:21:08.912Z,1.55
2023-03-15T19:23:37.191Z,1.63
2023-03-15T19:26:05.704Z,1.64
2023-03-15T19:28:34.754Z,1.66
2023-03-15T19:31:04.361Z,1.60
2023-03-15T19:33:32.560Z,1.39
2023-03-15T19:36:01.640Z,1.49
2023-03-15T19:38:30.169Z,1.42
2023-03-15T19:41:03.622Z,1.43
2023-03-15T19:43:32.581Z,1.44
2023-03-15T19:46:01.379Z,1.39
2023-03-15T19:48:30.996Z,1.37
2023-03-15T19:50:59.118Z,1.30
2023-03-15T19:53:27.461Z,1.33
2023-03-15T19:55:55.579Z,1.39
2023-03-15T19:58:23.744Z,1.27
2023-03-15T20:00:54.185Z,1.29
2023-03-15T20:03:22.311Z,1.35
2023-03-15T20:05:52.138Z,1.24
2023-03-15T20:08:20.871Z,1.27
2023-03-15T20:10:49.420Z,1.31
2023-03-15T20:13:17.554Z,1.28
2023-03-15T20:15:45.699Z,1.14
2023-03-15T20:18:15.860Z,1.21
2023-03-15T20:20:44.231Z,1.15
2023-03-15T20:23:14.556Z,1.08
2023-03-15T20:25:43.183Z,1.07
2023-03-15T20:28:11.704Z,0.95
2023-03-15T20:30:41.823Z,0.98
2023-03-15T20:33:11.163Z,1.02
2023-03-15T20:35:39.362Z,1.19
2023-03-15T20:38:08.174Z,1.18
2023-03-15T20:40:39.440Z,0.99
2023-03-15T20:43:07.943Z,1.02
2023-03-15T20:45:36.069Z,1.04
2023-03-15T20:48:04.970Z,1.07
2023-03-15T20:50:33.141Z,0.91
2023-03-15T20:53:03.643Z,0.99
2023-03-15T20:55:32.731Z,0.87
2023-03-15T20:58:02.212Z,1.01
2023-03-15T21:00:30.364Z,0.98
2023-03-15T21:03:07.500Z,0.84
2023-03-15T21:05:35.714Z,0.84
2023-03-15T21:08:04.121Z,0.81
2023-03-15T21:10:32.245Z,0.92
2023-03-15T21:13:08.329Z,0.99
2023-03-15T21:15:44.294Z,1.10
2023-03-15T21:18:12.676Z,1.14
2023-03-15T21:20:41.138Z,0.99
2023-03-15T21:23:10.022Z,1.16
2023-03-15T21:25:38.975Z,1.14
2023-03-15T21:28:08.445Z,1.02
2023-03-15T21:30:39.561Z,0.96
2023-03-15T21:33:08.101Z,0.89
2023-03-15T21:35:36.622Z,0.90
2023-03-15T21:38:04.779Z,0.81
2023-03-15T21:40:32.962Z,0.75
2023-03-15T21:43:01.089Z,0.57
2023-03-15T21:45:30.972Z,0.52
2023-03-15T21:47:59.212Z,0.35
2023-03-15T21:50:27.513Z,0.42
2023-03-15T21:52:55.759Z,0.39
2023-03-15T21:55:23.886Z,0.40
2023-03-15T21:57:52.663Z,0.46
2023-03-15T22:00:23.170Z,0.38
2023-03-15T22:02:55.703Z,0.32
2023-03-15T22:05:25.222Z,0.36
2023-03-15T22:07:53.351Z,0.22
2023-03-15T22:10:23.190Z,0.31
2023-03-15T22:12:53.932Z,0.19
2023-03-15T22:15:22.988Z,0.14
2023-03-15T22:17:52.792Z,-0.05
2023-03-15T22:20:21.102Z,-0.09
2023-03-15T22:22:50.021Z,-0.07
2023-03-15T22:25:18.593Z,-0.06
2023-03-15T22:27:47.161Z,-0.01
2023-03-15T22:30:15.957Z,-0.13
2023-03-15T22:32:44.818Z,-0.12
2023-03-15T22:35:16.241Z,-0.14
2023-03-15T22:37:45.000Z,-0.17
2023-03-15T22:40:15.096Z,-0.22
2023-03-15T22:42:44.017Z,-0.23
2023-03-15T22:45:12.515Z,-0.29
2023-03-15T22:47:40.635Z,-0.30
2023-03-15T22:50:10.714Z,-0.28
2023-03-15T22:52:40.419Z,-0.30
2023-03-15T22:55:10.256Z,-0.30
2023-03-15T22:57:38.503Z,-0.32
2023-03-15T23:00:13.496Z,-0.35
2023-03-15T23:02:42.084Z,-0.27
2023-03-15T23:05:11.705Z,-0.31
2023-03-15T23:07:42.373Z,-0.39
2023-03-15T23:10:12.582Z,-0.33
2023-03-15T23:12:41.165Z,-0.45
2023-03-15T23:15:12.006Z,-0.35
2023-03-15T23:17:40.163Z,-0.47
2023-03-15T23:20:10.154Z,-0.42
2023-03-15T23:22:38.288Z,-0.48
2023-03-15T23:25:08.700Z,-0.54
2023-03-15T23:27:37.023Z,-0.56
2023-03-15T23:30:06.559Z,-0.62
2023-03-15T23:32:36.453Z,-0.56
2023-03-15T23:35:06.169Z,-0.55
2023-03-15T23:37:34.456Z,-0.58
2023-03-15T23:40:07.711Z,-0.80
2023-03-15T23:42:37.679Z,-0.75
2023-03-15T23:45:06.997Z,-0.66
2023-03-15T23:47:35.330Z,-0.66
2023-03-15T23:50:03.474Z,-0.59
2023-03-15T23:52:31.878Z,-0.64
2023-03-15T23:55:00.273Z,-0.52
2023-03-15T23:57:29.504Z,-0.48
2023-03-15T23:59:59.049Z,-0.48
